sensor_id;sensor_type;location;lat;lon;timestamp;temperature;humidity
15819;DHT22;8010;53.986;12.106;2023-08-06T00:01:40;15.40;99.90
15819;DHT22;8010;53.986;12.106;2023-08-06T00:04:06;15.40;99.90
15819;DHT22;8010;53.986;12.106;2023-08-06T00:06:31;15.40;99.90
15819;DHT22;8010;53.986;12.106;2023-08-06T00:08:57;15.40;99.90
15819;DHT22;8010;53.986;12.106;2023-08-06T00:11:22;15.40;99.90
15819;DHT22;8010;53.986;12.106;2023-08-06T00:13:48;15.30;99.90
15819;DHT22;8010;53.986;12.106;2023-08-06T00:16:14;16.40;99.90
15819;DHT22;8010;53.986;12.106;2023-08-06T00:18:40;15.40;99.90
15819;DHT22;8010;53.986;12.106;2023-08-06T00:21:06;15.40;99.90
15819;DHT22;8010;53.986;12.106;2023-08-06T00:23:32;15.40;99.90
15819;DHT22;8010;53.986;12.106;2023-08-06T00:25:57;15.40;99.90
15819;DHT22;8010;53.986;12.106;2023-08-06T00:28:23;15.30;99.90
15819;DHT22;8010;53.986;12.106;2023-08-06T00:30:55;15.30;99.90
15819;DHT22;8010;53.986;12.106;2023-08-06T00:33:21;15.30;99.90
15819;DHT22;8010;53.986;12.106;2023-08-06T00:35:47;15.30;99.90
15819;DHT22;8010;53.986;12.106;2023-08-06T00:38:13;15.30;99.90
15819;DHT22;8010;53.986;12.106;2023-08-06T00:40:38;15.30;99.90
15819;DHT22;8010;53.986;12.106;2023-08-06T00:43:04;15.30;99.90
15819;DHT22;8010;53.986;12.106;2023-08-06T00:45:30;15.30;99.90
15819;DHT22;8010;53.986;12.106;2023-08-06T00:47:59;15.30;99.90
15819;DHT22;8010;53.986;12.106;2023-08-06T00:50:25;15.30;99.90
15819;DHT22;8010;53.986;12.106;2023-08-06T00:52:51;15.30;99.90
15819;DHT22;8010;53.986;12.106;2023-08-06T00:55:17;15.30;99.90
15819;DHT22;8010;53.986;12.106;2023-08-06T00:57:43;15.30;99.90
15819;DHT22;8010;53.986;12.106;2023-08-06T01:00:09;15.30;99.90
15819;DHT22;8010;53.986;12.106;2023-08-06T01:02:34;15.20;99.90
15819;DHT22;8010;53.986;12.106;2023-08-06T01:05:00;15.20;99.90
15819;DHT22;8010;53.986;12.106;2023-08-06T01:15:55;15.10;99.90
15819;DHT22;8010;53.986;12.106;2023-08-06T01:18:23;15.10;99.90
15819;DHT22;8010;53.986;12.106;2023-08-06T01:20:48;15.10;99.90
15819;DHT22;8010;53.986;12.106;2023-08-06T01:23:15;15.00;99.90
15819;DHT22;8010;53.986;12.106;2023-08-06T01:31:15;14.90;99.90
15819;DHT22;8010;53.986;12.106;2023-08-06T01:33:45;14.80;99.90
15819;DHT22;8010;53.986;12.106;2023-08-06T01:36:11;14.70;99.90
15819;DHT22;8010;53.986;12.106;2023-08-06T01:38:37;14.70;99.90
15819;DHT22;8010;53.986;12.106;2023-08-06T01:41:02;14.70;99.90
15819;DHT22;8010;53.986;12.106;2023-08-06T01:43:28;14.60;99.90
15819;DHT22;8010;53.986;12.106;2023-08-06T01:45:53;14.60;99.90
15819;DHT22;8010;53.986;12.106;2023-08-06T01:48:19;14.60;99.90
15819;DHT22;8010;53.986;12.106;2023-08-06T01:50:44;14.60;99.90
15819;DHT22;8010;53.986;12.106;2023-08-06T01:53:10;14.50;99.90
15819;DHT22;8010;53.986;12.106;2023-08-06T01:55:36;14.50;99.90
15819;DHT22;8010;53.986;12.106;2023-08-06T01:58:01;14.50;99.90
15819;DHT22;8010;53.986;12.106;2023-08-06T02:00:27;14.50;99.90
15819;DHT22;8010;53.986;12.106;2023-08-06T02:02:54;14.50;99.90
15819;DHT22;8010;53.986;12.106;2023-08-06T02:05:19;14.50;99.90
15819;DHT22;8010;53.986;12.106;2023-08-06T02:07:45;14.40;99.90
15819;DHT22;8010;53.986;12.106;2023-08-06T02:10:10;14.40;99.90
15819;DHT22;8010;53.986;12.106;2023-08-06T02:12:36;14.40;99.90
15819;DHT22;8010;53.986;12.106;2023-08-06T02:15:02;14.40;99.90
15819;DHT22;8010;53.986;12.106;2023-08-06T02:17:27;14.40;99.90
15819;DHT22;8010;53.986;12.106;2023-08-06T02:19:53;14.30;99.90
15819;DHT22;8010;53.986;12.106;2023-08-06T02:22:18;14.30;99.90
15819;DHT22;8010;53.986;12.106;2023-08-06T02:24:44;14.30;99.90
15819;DHT22;8010;53.986;12.106;2023-08-06T02:27:09;14.30;99.90
15819;DHT22;8010;53.986;12.106;2023-08-06T02:29:35;14.30;99.90
15819;DHT22;8010;53.986;12.106;2023-08-06T02:32:00;14.30;99.90
15819;DHT22;8010;53.986;12.106;2023-08-06T02:34:27;14.30;99.90
15819;DHT22;8010;53.986;12.106;2023-08-06T02:36:53;14.30;99.90
15819;DHT22;8010;53.986;12.106;2023-08-06T02:39:19;14.30;99.90
15819;DHT22;8010;53.986;12.106;2023-08-06T02:41:44;14.30;99.90
15819;DHT22;8010;53.986;12.106;2023-08-06T02:44:10;14.30;99.90
15819;DHT22;8010;53.986;12.106;2023-08-06T02:46:35;14.30;99.90
15819;DHT22;8010;53.986;12.106;2023-08-06T02:49:01;14.30;99.90
15819;DHT22;8010;53.986;12.106;2023-08-06T02:51:26;14.30;99.90
15819;DHT22;8010;53.986;12.106;2023-08-06T02:53:52;14.30;99.90
15819;DHT22;8010;53.986;12.106;2023-08-06T02:56:17;14.30;99.90
15819;DHT22;8010;53.986;12.106;2023-08-06T02:58:43;14.30;99.90
15819;DHT22;8010;53.986;12.106;2023-08-06T03:01:08;14.30;99.90
15819;DHT22;8010;53.986;12.106;2023-08-06T03:03:34;14.30;99.90
15819;DHT22;8010;53.986;12.106;2023-08-06T03:06:00;14.30;99.90
15819;DHT22;8010;53.986;12.106;2023-08-06T03:08:25;14.40;99.90
15819;DHT22;8010;53.986;12.106;2023-08-06T03:10:51;14.40;99.90
15819;DHT22;8010;53.986;12.106;2023-08-06T03:13:17;14.40;99.90
15819;DHT22;8010;53.986;12.106;2023-08-06T03:15:43;14.40;99.90
15819;DHT22;8010;53.986;12.106;2023-08-06T03:18:16;14.40;99.90
15819;DHT22;8010;53.986;12.106;2023-08-06T03:20:41;14.40;99.90
15819;DHT22;8010;53.986;12.106;2023-08-06T03:23:07;14.40;99.90
15819;DHT22;8010;53.986;12.106;2023-08-06T03:25:35;14.40;99.90
15819;DHT22;8010;53.986;12.106;2023-08-06T03:28:02;14.40;99.90
15819;DHT22;8010;53.986;12.106;2023-08-06T03:30:27;14.40;99.90
15819;DHT22;8010;53.986;12.106;2023-08-06T03:32:53;14.40;99.90
15819;DHT22;8010;53.986;12.106;2023-08-06T03:35:18;14.40;99.90
15819;DHT22;8010;53.986;12.106;2023-08-06T03:37:44;14.40;99.90
15819;DHT22;8010;53.986;12.106;2023-08-06T03:40:10;14.40;99.90
15819;DHT22;8010;53.986;12.106;2023-08-06T03:42:35;14.40;99.90
15819;DHT22;8010;53.986;12.106;2023-08-06T03:45:01;14.40;99.90
15819;DHT22;8010;53.986;12.106;2023-08-06T03:47:26;14.40;99.90
15819;DHT22;8010;53.986;12.106;2023-08-06T03:49:52;14.40;99.90
15819;DHT22;8010;53.986;12.106;2023-08-06T03:52:17;14.40;99.90
15819;DHT22;8010;53.986;12.106;2023-08-06T03:54:43;14.40;99.90
15819;DHT22;8010;53.986;12.106;2023-08-06T03:57:09;14.40;99.90
15819;DHT22;8010;53.986;12.106;2023-08-06T03:59:34;14.40;99.90
15819;DHT22;8010;53.986;12.106;2023-08-06T04:02:00;14.40;99.90
15819;DHT22;8010;53.986;12.106;2023-08-06T04:04:26;14.40;99.90
15819;DHT22;8010;53.986;12.106;2023-08-06T04:06:51;14.40;99.90
15819;DHT22;8010;53.986;12.106;2023-08-06T04:09:17;14.40;99.90
15819;DHT22;8010;53.986;12.106;2023-08-06T04:11:42;14.50;99.90
15819;DHT22;8010;53.986;12.106;2023-08-06T04:14:08;14.50;99.90
15819;DHT22;8010;53.986;12.106;2023-08-06T04:16:33;14.50;99.90
15819;DHT22;8010;53.986;12.106;2023-08-06T04:18:59;14.50;99.90
15819;DHT22;8010;53.986;12.106;2023-08-06T04:21:24;14.50;99.90
15819;DHT22;8010;53.986;12.106;2023-08-06T04:23:50;14.50;99.90
15819;DHT22;8010;53.986;12.106;2023-08-06T04:26:15;14.50;99.90
15819;DHT22;8010;53.986;12.106;2023-08-06T04:28:41;14.50;99.90
15819;DHT22;8010;53.986;12.106;2023-08-06T04:31:06;14.60;99.90
15819;DHT22;8010;53.986;12.106;2023-08-06T04:33:32;14.60;99.90
15819;DHT22;8010;53.986;12.106;2023-08-06T04:35:57;14.60;99.90
15819;DHT22;8010;53.986;12.106;2023-08-06T04:38:24;14.60;99.90
15819;DHT22;8010;53.986;12.106;2023-08-06T04:40:53;14.60;99.90
15819;DHT22;8010;53.986;12.106;2023-08-06T04:43:18;14.70;99.90
15819;DHT22;8010;53.986;12.106;2023-08-06T04:45:48;14.70;99.90
15819;DHT22;8010;53.986;12.106;2023-08-06T04:48:14;14.80;99.90
15819;DHT22;8010;53.986;12.106;2023-08-06T04:50:44;14.80;99.90
15819;DHT22;8010;53.986;12.106;2023-08-06T04:53:09;14.80;99.90
15819;DHT22;8010;53.986;12.106;2023-08-06T04:55:35;14.90;99.90
15819;DHT22;8010;53.986;12.106;2023-08-06T04:58:00;14.90;99.90
15819;DHT22;8010;53.986;12.106;2023-08-06T05:00:26;15.00;99.90
15819;DHT22;8010;53.986;12.106;2023-08-06T05:02:51;15.10;99.90
15819;DHT22;8010;53.986;12.106;2023-08-06T05:05:17;15.10;99.90
15819;DHT22;8010;53.986;12.106;2023-08-06T05:07:42;15.20;99.90
15819;DHT22;8010;53.986;12.106;2023-08-06T05:10:08;15.20;99.90
15819;DHT22;8010;53.986;12.106;2023-08-06T05:12:34;15.30;99.90
15819;DHT22;8010;53.986;12.106;2023-08-06T05:14:59;15.30;99.90
15819;DHT22;8010;53.986;12.106;2023-08-06T05:17:25;15.30;99.90
15819;DHT22;8010;53.986;12.106;2023-08-06T05:19:50;15.40;99.90
15819;DHT22;8010;53.986;12.106;2023-08-06T05:22:16;15.40;99.90
15819;DHT22;8010;53.986;12.106;2023-08-06T05:24:41;15.40;99.90
15819;DHT22;8010;53.986;12.106;2023-08-06T05:27:07;15.40;99.90
15819;DHT22;8010;53.986;12.106;2023-08-06T05:29:32;15.40;99.90
15819;DHT22;8010;53.986;12.106;2023-08-06T05:31:58;15.50;99.90
15819;DHT22;8010;53.986;12.106;2023-08-06T05:34:23;15.50;99.90
15819;DHT22;8010;53.986;12.106;2023-08-06T05:36:49;15.50;99.90
15819;DHT22;8010;53.986;12.106;2023-08-06T05:39:14;15.60;99.90
15819;DHT22;8010;53.986;12.106;2023-08-06T05:41:40;15.60;99.90
15819;DHT22;8010;53.986;12.106;2023-08-06T05:44:05;15.70;99.90
15819;DHT22;8010;53.986;12.106;2023-08-06T05:46:31;15.70;99.90
15819;DHT22;8010;53.986;12.106;2023-08-06T05:48:56;15.70;99.90
15819;DHT22;8010;53.986;12.106;2023-08-06T05:51:22;15.80;99.90
15819;DHT22;8010;53.986;12.106;2023-08-06T05:53:48;15.90;99.90
15819;DHT22;8010;53.986;12.106;2023-08-06T05:56:15;15.90;99.90
15819;DHT22;8010;53.986;12.106;2023-08-06T05:58:41;15.90;99.90
15819;DHT22;8010;53.986;12.106;2023-08-06T06:01:06;16.00;99.90
15819;DHT22;8010;53.986;12.106;2023-08-06T06:03:32;16.10;99.90
15819;DHT22;8010;53.986;12.106;2023-08-06T06:05:58;16.10;99.90
15819;DHT22;8010;53.986;12.106;2023-08-06T06:08:25;16.20;99.90
15819;DHT22;8010;53.986;12.106;2023-08-06T06:10:50;16.30;99.90
15819;DHT22;8010;53.986;12.106;2023-08-06T06:13:16;16.40;99.90
15819;DHT22;8010;53.986;12.106;2023-08-06T06:15:41;16.40;99.90
15819;DHT22;8010;53.986;12.106;2023-08-06T06:18:07;16.50;99.90
15819;DHT22;8010;53.986;12.106;2023-08-06T06:20:33;16.50;99.90
15819;DHT22;8010;53.986;12.106;2023-08-06T06:22:59;16.60;99.90
15819;DHT22;8010;53.986;12.106;2023-08-06T06:25:24;16.60;99.90
15819;DHT22;8010;53.986;12.106;2023-08-06T06:27:50;16.70;99.90
15819;DHT22;8010;53.986;12.106;2023-08-06T06:30:15;16.70;99.90
15819;DHT22;8010;53.986;12.106;2023-08-06T06:32:41;16.80;99.90
15819;DHT22;8010;53.986;12.106;2023-08-06T06:35:07;16.90;99.90
15819;DHT22;8010;53.986;12.106;2023-08-06T06:37:32;16.90;99.90
15819;DHT22;8010;53.986;12.106;2023-08-06T06:39:58;17.00;99.90
15819;DHT22;8010;53.986;12.106;2023-08-06T06:42:23;17.00;99.90
15819;DHT22;8010;53.986;12.106;2023-08-06T06:44:49;17.10;99.90
15819;DHT22;8010;53.986;12.106;2023-08-06T06:47:15;17.20;99.90
15819;DHT22;8010;53.986;12.106;2023-08-06T06:49:40;17.30;99.90
15819;DHT22;8010;53.986;12.106;2023-08-06T06:52:06;17.30;99.90
15819;DHT22;8010;53.986;12.106;2023-08-06T06:54:31;17.40;99.90
15819;DHT22;8010;53.986;12.106;2023-08-06T06:56:57;17.50;99.90
15819;DHT22;8010;53.986;12.106;2023-08-06T06:59:22;17.50;99.90
15819;DHT22;8010;53.986;12.106;2023-08-06T07:01:48;17.50;99.90
15819;DHT22;8010;53.986;12.106;2023-08-06T07:04:13;17.60;99.90
15819;DHT22;8010;53.986;12.106;2023-08-06T07:06:39;17.60;99.90
15819;DHT22;8010;53.986;12.106;2023-08-06T07:09:04;17.70;99.90
15819;DHT22;8010;53.986;12.106;2023-08-06T07:11:31;17.70;99.90
15819;DHT22;8010;53.986;12.106;2023-08-06T07:13:57;17.80;99.90
15819;DHT22;8010;53.986;12.106;2023-08-06T07:16:26;17.90;99.90
15819;DHT22;8010;53.986;12.106;2023-08-06T07:18:53;17.90;99.90
15819;DHT22;8010;53.986;12.106;2023-08-06T07:21:18;18.00;99.90
15819;DHT22;8010;53.986;12.106;2023-08-06T07:23:45;18.00;99.90
15819;DHT22;8010;53.986;12.106;2023-08-06T07:26:10;18.00;99.90
15819;DHT22;8010;53.986;12.106;2023-08-06T07:28:36;18.10;99.90
15819;DHT22;8010;53.986;12.106;2023-08-06T07:31:03;16.80;99.90
15819;DHT22;8010;53.986;12.106;2023-08-06T07:33:28;18.20;99.90
15819;DHT22;8010;53.986;12.106;2023-08-06T07:35:54;18.20;99.90
15819;DHT22;8010;53.986;12.106;2023-08-06T07:38:20;18.20;99.90
15819;DHT22;8010;53.986;12.106;2023-08-06T07:40:45;18.30;99.90
15819;DHT22;8010;53.986;12.106;2023-08-06T07:43:11;18.40;99.90
15819;DHT22;8010;53.986;12.106;2023-08-06T07:45:37;18.40;99.90
15819;DHT22;8010;53.986;12.106;2023-08-06T07:48:03;18.40;99.90
15819;DHT22;8010;53.986;12.106;2023-08-06T07:50:29;18.50;99.90
15819;DHT22;8010;53.986;12.106;2023-08-06T07:52:54;18.50;99.90
15819;DHT22;8010;53.986;12.106;2023-08-06T07:55:20;18.50;99.90
15819;DHT22;8010;53.986;12.106;2023-08-06T07:57:46;18.60;99.90
15819;DHT22;8010;53.986;12.106;2023-08-06T08:00:11;18.60;99.90
15819;DHT22;8010;53.986;12.106;2023-08-06T08:02:37;18.70;99.90
15819;DHT22;8010;53.986;12.106;2023-08-06T08:05:02;18.80;99.90
15819;DHT22;8010;53.986;12.106;2023-08-06T08:07:28;18.90;99.90
15819;DHT22;8010;53.986;12.106;2023-08-06T08:09:56;18.90;99.90
15819;DHT22;8010;53.986;12.106;2023-08-06T08:12:21;19.00;99.90
15819;DHT22;8010;53.986;12.106;2023-08-06T08:14:47;19.00;99.90
15819;DHT22;8010;53.986;12.106;2023-08-06T08:17:12;19.10;99.90
15819;DHT22;8010;53.986;12.106;2023-08-06T08:19:39;19.10;99.90
15819;DHT22;8010;53.986;12.106;2023-08-06T08:22:04;19.10;99.90
15819;DHT22;8010;53.986;12.106;2023-08-06T08:24:30;19.20;99.90
15819;DHT22;8010;53.986;12.106;2023-08-06T08:26:56;19.20;99.90
15819;DHT22;8010;53.986;12.106;2023-08-06T08:29:22;19.20;99.90
15819;DHT22;8010;53.986;12.106;2023-08-06T08:31:48;19.30;99.90
15819;DHT22;8010;53.986;12.106;2023-08-06T08:34:17;19.30;99.90
15819;DHT22;8010;53.986;12.106;2023-08-06T08:36:43;19.30;99.90
15819;DHT22;8010;53.986;12.106;2023-08-06T08:39:09;19.40;99.90
15819;DHT22;8010;53.986;12.106;2023-08-06T08:41:37;19.50;99.90
15819;DHT22;8010;53.986;12.106;2023-08-06T08:44:07;19.60;99.90
15819;DHT22;8010;53.986;12.106;2023-08-06T08:46:36;20.30;99.90
15819;DHT22;8010;53.986;12.106;2023-08-06T08:49:02;19.60;99.90
15819;DHT22;8010;53.986;12.106;2023-08-06T08:51:29;19.70;99.90
15819;DHT22;8010;53.986;12.106;2023-08-06T08:53:55;19.70;99.90
15819;DHT22;8010;53.986;12.106;2023-08-06T08:56:24;19.70;99.90
15819;DHT22;8010;53.986;12.106;2023-08-06T08:58:50;19.80;99.90
15819;DHT22;8010;53.986;12.106;2023-08-06T09:01:23;20.60;99.90
15819;DHT22;8010;53.986;12.106;2023-08-06T09:03:50;19.90;99.90
15819;DHT22;8010;53.986;12.106;2023-08-06T09:06:17;19.90;99.90
15819;DHT22;8010;53.986;12.106;2023-08-06T09:09:01;19.90;99.90
15819;DHT22;8010;53.986;12.106;2023-08-06T09:11:37;20.00;99.90
15819;DHT22;8010;53.986;12.106;2023-08-06T09:14:06;20.00;99.90
15819;DHT22;8010;53.986;12.106;2023-08-06T09:16:38;20.10;99.90
15819;DHT22;8010;53.986;12.106;2023-08-06T09:19:10;20.20;99.90
15819;DHT22;8010;53.986;12.106;2023-08-06T09:21:41;20.20;99.90
15819;DHT22;8010;53.986;12.106;2023-08-06T09:24:08;20.30;99.90
15819;DHT22;8010;53.986;12.106;2023-08-06T09:26:34;20.30;99.90
15819;DHT22;8010;53.986;12.106;2023-08-06T09:29:01;20.40;99.90
15819;DHT22;8010;53.986;12.106;2023-08-06T09:31:33;20.40;99.90
15819;DHT22;8010;53.986;12.106;2023-08-06T09:34:00;21.80;99.90
15819;DHT22;8010;53.986;12.106;2023-08-06T09:36:27;20.50;99.90
15819;DHT22;8010;53.986;12.106;2023-08-06T09:38:52;20.60;99.90
15819;DHT22;8010;53.986;12.106;2023-08-06T09:41:28;20.60;99.90
15819;DHT22;8010;53.986;12.106;2023-08-06T09:43:56;20.70;99.90
15819;DHT22;8010;53.986;12.106;2023-08-06T09:46:22;20.70;99.90
15819;DHT22;8010;53.986;12.106;2023-08-06T09:48:47;20.90;99.90
15819;DHT22;8010;53.986;12.106;2023-08-06T09:51:13;20.50;99.90
15819;DHT22;8010;53.986;12.106;2023-08-06T09:53:40;20.80;99.90
15819;DHT22;8010;53.986;12.106;2023-08-06T09:56:06;21.20;99.90
15819;DHT22;8010;53.986;12.106;2023-08-06T09:58:32;20.80;99.90
15819;DHT22;8010;53.986;12.106;2023-08-06T10:00:59;20.90;99.90
15819;DHT22;8010;53.986;12.106;2023-08-06T10:03:25;20.90;99.90
15819;DHT22;8010;53.986;12.106;2023-08-06T10:05:51;21.00;99.90
15819;DHT22;8010;53.986;12.106;2023-08-06T10:08:17;22.00;99.90
15819;DHT22;8010;53.986;12.106;2023-08-06T10:10:43;20.90;99.90
15819;DHT22;8010;53.986;12.106;2023-08-06T10:13:10;21.00;99.90
15819;DHT22;8010;53.986;12.106;2023-08-06T10:15:36;20.90;99.90
15819;DHT22;8010;53.986;12.106;2023-08-06T10:18:04;20.90;99.90
15819;DHT22;8010;53.986;12.106;2023-08-06T10:20:34;20.80;99.90
15819;DHT22;8010;53.986;12.106;2023-08-06T10:23:09;20.80;99.90
15819;DHT22;8010;53.986;12.106;2023-08-06T10:25:35;20.90;99.90
15819;DHT22;8010;53.986;12.106;2023-08-06T10:28:11;20.90;99.90
15819;DHT22;8010;53.986;12.106;2023-08-06T10:30:47;20.80;99.90
15819;DHT22;8010;53.986;12.106;2023-08-06T10:33:13;20.80;99.90
15819;DHT22;8010;53.986;12.106;2023-08-06T10:35:46;20.90;99.90
15819;DHT22;8010;53.986;12.106;2023-08-06T10:38:25;20.80;99.90
15819;DHT22;8010;53.986;12.106;2023-08-06T10:43:35;20.90;99.90
15819;DHT22;8010;53.986;12.106;2023-08-06T10:46:04;20.90;99.90
15819;DHT22;8010;53.986;12.106;2023-08-06T10:48:37;21.00;99.90
15819;DHT22;8010;53.986;12.106;2023-08-06T10:51:06;20.90;99.90
15819;DHT22;8010;53.986;12.106;2023-08-06T10:53:32;20.80;99.90
15819;DHT22;8010;53.986;12.106;2023-08-06T10:55:58;20.90;99.90
15819;DHT22;8010;53.986;12.106;2023-08-06T10:58:23;20.90;99.90
15819;DHT22;8010;53.986;12.106;2023-08-06T11:00:49;21.20;99.90
15819;DHT22;8010;53.986;12.106;2023-08-06T11:03:14;20.80;99.90
15819;DHT22;8010;53.986;12.106;2023-08-06T11:05:40;20.80;99.90
15819;DHT22;8010;53.986;12.106;2023-08-06T11:08:06;20.80;99.90
15819;DHT22;8010;53.986;12.106;2023-08-06T11:10:34;20.80;99.90
15819;DHT22;8010;53.986;12.106;2023-08-06T11:13:03;20.80;99.90
15819;DHT22;8010;53.986;12.106;2023-08-06T11:15:32;20.80;99.90
15819;DHT22;8010;53.986;12.106;2023-08-06T11:17:58;20.80;99.90
15819;DHT22;8010;53.986;12.106;2023-08-06T11:20:24;20.90;99.90
15819;DHT22;8010;53.986;12.106;2023-08-06T11:22:50;20.90;99.90
15819;DHT22;8010;53.986;12.106;2023-08-06T11:25:15;21.00;99.90
15819;DHT22;8010;53.986;12.106;2023-08-06T11:27:41;21.00;99.90
15819;DHT22;8010;53.986;12.106;2023-08-06T11:30:07;21.00;99.90
15819;DHT22;8010;53.986;12.106;2023-08-06T11:32:32;21.00;99.90
15819;DHT22;8010;53.986;12.106;2023-08-06T11:35:09;21.00;99.90
15819;DHT22;8010;53.986;12.106;2023-08-06T11:37:36;21.00;99.90
15819;DHT22;8010;53.986;12.106;2023-08-06T11:40:10;21.00;99.90
15819;DHT22;8010;53.986;12.106;2023-08-06T11:42:36;21.00;99.90
15819;DHT22;8010;53.986;12.106;2023-08-06T11:45:03;21.00;99.90
15819;DHT22;8010;53.986;12.106;2023-08-06T11:47:30;21.00;99.90
15819;DHT22;8010;53.986;12.106;2023-08-06T11:49:55;21.00;99.90
15819;DHT22;8010;53.986;12.106;2023-08-06T11:52:22;21.00;99.90
15819;DHT22;8010;53.986;12.106;2023-08-06T11:55:08;21.10;99.90
15819;DHT22;8010;53.986;12.106;2023-08-06T11:57:38;21.00;99.90
15819;DHT22;8010;53.986;12.106;2023-08-06T12:00:06;21.00;99.90
15819;DHT22;8010;53.986;12.106;2023-08-06T12:02:33;20.50;99.90
15819;DHT22;8010;53.986;12.106;2023-08-06T12:05:10;21.00;99.90
15819;DHT22;8010;53.986;12.106;2023-08-06T12:07:56;21.00;99.90
15819;DHT22;8010;53.986;12.106;2023-08-06T12:10:26;21.10;99.90
15819;DHT22;8010;53.986;12.106;2023-08-06T12:12:53;21.00;99.90
15819;DHT22;8010;53.986;12.106;2023-08-06T12:15:19;21.20;99.90
15819;DHT22;8010;53.986;12.106;2023-08-06T12:17:45;21.10;99.90
15819;DHT22;8010;53.986;12.106;2023-08-06T12:20:10;22.60;99.90
15819;DHT22;8010;53.986;12.106;2023-08-06T12:22:37;21.30;99.90
15819;DHT22;8010;53.986;12.106;2023-08-06T12:25:09;21.30;99.90
15819;DHT22;8010;53.986;12.106;2023-08-06T12:27:38;21.40;99.90
15819;DHT22;8010;53.986;12.106;2023-08-06T12:30:05;21.30;99.90
15819;DHT22;8010;53.986;12.106;2023-08-06T12:32:31;21.30;99.90
15819;DHT22;8010;53.986;12.106;2023-08-06T12:34:57;21.40;99.90
15819;DHT22;8010;53.986;12.106;2023-08-06T12:37:23;21.30;99.90
15819;DHT22;8010;53.986;12.106;2023-08-06T12:39:49;21.30;99.90
15819;DHT22;8010;53.986;12.106;2023-08-06T12:42:15;21.20;99.90
15819;DHT22;8010;53.986;12.106;2023-08-06T12:44:41;21.20;99.90
15819;DHT22;8010;53.986;12.106;2023-08-06T12:47:09;21.20;99.90
15819;DHT22;8010;53.986;12.106;2023-08-06T12:49:35;21.20;99.90
15819;DHT22;8010;53.986;12.106;2023-08-06T12:52:01;21.70;99.90
15819;DHT22;8010;53.986;12.106;2023-08-06T12:54:27;21.30;99.90
15819;DHT22;8010;53.986;12.106;2023-08-06T12:56:53;22.10;99.90
15819;DHT22;8010;53.986;12.106;2023-08-06T12:59:19;22.00;99.90
15819;DHT22;8010;53.986;12.106;2023-08-06T13:01:45;21.70;99.90
15819;DHT22;8010;53.986;12.106;2023-08-06T13:04:10;21.60;99.90
15819;DHT22;8010;53.986;12.106;2023-08-06T13:06:37;21.70;99.90
15819;DHT22;8010;53.986;12.106;2023-08-06T13:09:12;21.90;99.90
15819;DHT22;8010;53.986;12.106;2023-08-06T13:11:40;22.00;99.90
15819;DHT22;8010;53.986;12.106;2023-08-06T13:14:11;21.90;99.90
15819;DHT22;8010;53.986;12.106;2023-08-06T13:16:37;21.90;99.90
15819;DHT22;8010;53.986;12.106;2023-08-06T13:19:04;21.90;99.90
15819;DHT22;8010;53.986;12.106;2023-08-06T13:24:03;21.60;99.90
15819;DHT22;8010;53.986;12.106;2023-08-06T13:26:32;21.50;99.90
15819;DHT22;8010;53.986;12.106;2023-08-06T13:28:58;21.50;99.90
15819;DHT22;8010;53.986;12.106;2023-08-06T13:31:24;21.40;99.90
15819;DHT22;8010;53.986;12.106;2023-08-06T13:33:50;21.20;99.90
15819;DHT22;8010;53.986;12.106;2023-08-06T13:36:16;21.20;99.90
15819;DHT22;8010;53.986;12.106;2023-08-06T13:38:42;21.10;99.90
15819;DHT22;8010;53.986;12.106;2023-08-06T13:41:07;21.10;99.90
15819;DHT22;8010;53.986;12.106;2023-08-06T13:43:33;21.00;99.90
15819;DHT22;8010;53.986;12.106;2023-08-06T13:45:59;20.90;99.90
15819;DHT22;8010;53.986;12.106;2023-08-06T13:48:24;20.90;99.90
15819;DHT22;8010;53.986;12.106;2023-08-06T13:50:50;20.90;99.90
15819;DHT22;8010;53.986;12.106;2023-08-06T13:53:15;21.00;99.90
15819;DHT22;8010;53.986;12.106;2023-08-06T13:55:41;21.00;99.90
15819;DHT22;8010;53.986;12.106;2023-08-06T13:58:06;20.90;99.90
15819;DHT22;8010;53.986;12.106;2023-08-06T14:00:32;20.80;99.90
15819;DHT22;8010;53.986;12.106;2023-08-06T14:02:58;20.80;99.90
15819;DHT22;8010;53.986;12.106;2023-08-06T14:05:23;20.70;99.90
15819;DHT22;8010;53.986;12.106;2023-08-06T14:07:49;20.60;99.90
15819;DHT22;8010;53.986;12.106;2023-08-06T14:10:14;20.50;99.90
15819;DHT22;8010;53.986;12.106;2023-08-06T14:12:40;20.50;99.90
15819;DHT22;8010;53.986;12.106;2023-08-06T14:15:06;20.40;99.90
15819;DHT22;8010;53.986;12.106;2023-08-06T14:17:32;20.20;99.90
15819;DHT22;8010;53.986;12.106;2023-08-06T14:19:57;20.20;99.90
15819;DHT22;8010;53.986;12.106;2023-08-06T14:22:23;20.20;99.90
15819;DHT22;8010;53.986;12.106;2023-08-06T14:24:48;20.00;99.90
15819;DHT22;8010;53.986;12.106;2023-08-06T14:27:14;19.90;99.90
15819;DHT22;8010;53.986;12.106;2023-08-06T14:29:39;19.80;99.90
15819;DHT22;8010;53.986;12.106;2023-08-06T14:32:05;19.70;99.90
15819;DHT22;8010;53.986;12.106;2023-08-06T14:34:31;19.70;99.90
15819;DHT22;8010;53.986;12.106;2023-08-06T14:36:56;19.60;99.90
15819;DHT22;8010;53.986;12.106;2023-08-06T14:39:22;19.60;99.90
15819;DHT22;8010;53.986;12.106;2023-08-06T14:41:48;19.60;99.90
15819;DHT22;8010;53.986;12.106;2023-08-06T14:44:13;19.50;99.90
15819;DHT22;8010;53.986;12.106;2023-08-06T14:46:39;19.50;99.90
15819;DHT22;8010;53.986;12.106;2023-08-06T14:49:04;19.50;99.90
15819;DHT22;8010;53.986;12.106;2023-08-06T14:51:30;19.50;99.90
15819;DHT22;8010;53.986;12.106;2023-08-06T14:53:56;19.50;99.90
15819;DHT22;8010;53.986;12.106;2023-08-06T14:56:21;19.40;99.90
15819;DHT22;8010;53.986;12.106;2023-08-06T14:58:47;19.40;99.90
15819;DHT22;8010;53.986;12.106;2023-08-06T15:01:13;19.40;99.90
15819;DHT22;8010;53.986;12.106;2023-08-06T15:03:38;19.40;99.90
15819;DHT22;8010;53.986;12.106;2023-08-06T15:06:04;19.40;99.90
15819;DHT22;8010;53.986;12.106;2023-08-06T15:08:29;19.40;99.90
15819;DHT22;8010;53.986;12.106;2023-08-06T15:10:55;19.40;99.90
15819;DHT22;8010;53.986;12.106;2023-08-06T15:13:21;19.30;99.90
15819;DHT22;8010;53.986;12.106;2023-08-06T15:15:47;19.20;99.90
15819;DHT22;8010;53.986;12.106;2023-08-06T15:18:13;19.20;99.90
15819;DHT22;8010;53.986;12.106;2023-08-06T15:20:39;19.10;99.90
15819;DHT22;8010;53.986;12.106;2023-08-06T15:23:04;19.00;99.90
15819;DHT22;8010;53.986;12.106;2023-08-06T15:25:30;19.00;99.90
15819;DHT22;8010;53.986;12.106;2023-08-06T15:27:55;18.90;99.90
15819;DHT22;8010;53.986;12.106;2023-08-06T15:30:21;18.80;99.90
15819;DHT22;8010;53.986;12.106;2023-08-06T15:32:47;18.70;99.90
15819;DHT22;8010;53.986;12.106;2023-08-06T15:35:13;18.70;99.90
15819;DHT22;8010;53.986;12.106;2023-08-06T15:37:39;18.70;99.90
15819;DHT22;8010;53.986;12.106;2023-08-06T15:40:06;18.60;99.90
15819;DHT22;8010;53.986;12.106;2023-08-06T15:42:32;18.60;99.90
15819;DHT22;8010;53.986;12.106;2023-08-06T15:44:58;18.50;99.90